Time;durP1;ratioP1;P1;durP2;ratioP2;P2;SDS_P1;SDS_P2;PMS_P1;PMS_P2;Temp;Humidity;BMP_temperature;BMP_pressure;BME280_temperature;BME280_humidity;BME280_pressure;Samples;Min_cycle;Max_cycle;Signal;HPM_P1;HPM_P2
2023/12/30 00:00:56;;;;;;;3.22;1.65;;;;;;;;;;5029123;28;20387;-67
2023/12/30 00:03:22;;;;;;;11.50;1.88;;;;;;;;;;5030069;28;20017;-69
2023/12/30 00:05:48;;;;;;;5.22;1.67;;;;;;;;;;5028949;28;20017;-68
2023/12/30 00:08:14;;;;;;;6.50;1.85;;;;;;;;;;5030506;28;20025;-68
2023/12/30 00:10:40;;;;;;;9.27;1.38;;;;;;;;;;5030015;28;20484;-67
2023/12/30 00:13:06;;;;;;;5.53;1.90;;;;;;;;;;5030641;28;20026;-68
2023/12/30 00:15:32;;;;;;;2.60;1.45;;;;;;;;;;5030373;28;20113;-68
2023/12/30 00:17:58;;;;;;;2.15;1.30;;;;;;;;;;5030532;28;20382;-68
2023/12/30 00:20:25;;;;;;;5.45;1.33;;;;;;;;;;5029398;28;20140;-70
2023/12/30 00:22:51;;;;;;;3.00;1.38;;;;;;;;;;5030331;28;20021;-67
2023/12/30 00:25:17;;;;;;;3.60;1.73;;;;;;;;;;5030173;28;20375;-68
2023/12/30 00:27:43;;;;;;;15.57;2.35;;;;;;;;;;5030314;28;20017;-69
2023/12/30 00:30:13;;;;;;;9.68;2.38;;;;;;;;;;5029996;28;20416;-69
2023/12/30 00:32:39;;;;;;;2.55;1.20;;;;;;;;;;5030162;28;20017;-69
2023/12/30 00:35:07;;;;;;;4.47;1.45;;;;;;;;;;5030113;28;20401;-68
2023/12/30 00:37:33;;;;;;;4.10;1.45;;;;;;;;;;5029970;28;20105;-69
2023/12/30 00:39:59;;;;;;;6.03;1.27;;;;;;;;;;5029640;28;20124;-69
2023/12/30 00:42:27;;;;;;;2.90;1.48;;;;;;;;;;5030032;28;20029;-68
2023/12/30 00:44:53;;;;;;;8.65;1.67;;;;;;;;;;5029977;28;20026;-69
2023/12/30 00:47:19;;;;;;;6.22;1.55;;;;;;;;;;5029743;28;20037;-68
2023/12/30 00:49:45;;;;;;;5.47;1.27;;;;;;;;;;5029542;28;20071;-66
2023/12/30 00:52:11;;;;;;;4.43;1.27;;;;;;;;;;5029789;28;20403;-69
2023/12/30 00:54:37;;;;;;;2.35;1.25;;;;;;;;;;5029781;28;20028;-69
2023/12/30 00:57:03;;;;;;;6.95;1.10;;;;;;;;;;5029807;28;20107;-69
2023/12/30 00:59:29;;;;;;;3.08;1.20;;;;;;;;;;5029400;28;20482;-68
2023/12/30 01:01:55;;;;;;;4.03;1.08;;;;;;;;;;5046138;22;20024;-66
2023/12/30 01:04:21;;;;;;;4.00;1.17;;;;;;;;;;5031422;28;20534;-66
2023/12/30 01:06:47;;;;;;;5.60;1.30;;;;;;;;;;5046630;28;20036;-66
2023/12/30 01:09:13;;;;;;;2.05;0.80;;;;;;;;;;5031512;28;20430;-66
2023/12/30 01:11:39;;;;;;;1.85;0.93;;;;;;;;;;5031097;28;20038;-66
2023/12/30 01:14:05;;;;;;;3.50;1.00;;;;;;;;;;5031452;28;20534;-68
2023/12/30 01:16:34;;;;;;;5.32;1.00;;;;;;;;;;5031477;28;20072;-66
2023/12/30 01:19:00;;;;;;;2.97;1.15;;;;;;;;;;5031562;28;20039;-68
2023/12/30 01:21:26;;;;;;;1.40;0.77;;;;;;;;;;5031089;28;20017;-67
2023/12/30 01:23:52;;;;;;;1.55;0.77;;;;;;;;;;5031386;28;20022;-65
2023/12/30 01:26:18;;;;;;;2.58;1.00;;;;;;;;;;5031376;28;20028;-64
2023/12/30 01:28:44;;;;;;;3.10;0.80;;;;;;;;;;5031264;28;20478;-64
2023/12/30 01:31:11;;;;;;;2.17;1.20;;;;;;;;;;5031050;28;20383;-65
2023/12/30 01:33:37;;;;;;;3.22;0.80;;;;;;;;;;5033503;28;20515;-65
2023/12/30 01:36:03;;;;;;;4.22;1.08;;;;;;;;;;5034321;28;20060;-65
2023/12/30 01:38:29;;;;;;;1.40;0.90;;;;;;;;;;5033814;28;20024;-64
2023/12/30 01:40:55;;;;;;;1.40;0.80;;;;;;;;;;5038136;28;20022;-64
2023/12/30 01:43:29;;;;;;;1.88;0.77;;;;;;;;;;5044779;28;20033;-65
2023/12/30 01:46:04;;;;;;;3.70;0.75;;;;;;;;;;5060023;28;20018;-65
2023/12/30 01:48:30;;;;;;;2.20;1.10;;;;;;;;;;5044525;28;20037;-64
2023/12/30 01:50:59;;;;;;;4.55;1.00;;;;;;;;;;5047547;28;20017;-67
2023/12/30 01:53:27;;;;;;;2.58;0.77;;;;;;;;;;5038312;28;20032;-68
2023/12/30 01:55:53;;;;;;;9.98;1.15;;;;;;;;;;5037448;28;20036;-67
2023/12/30 01:58:20;;;;;;;4.63;1.20;;;;;;;;;;5035309;28;20075;-65
2023/12/30 02:00:49;;;;;;;10.02;1.20;;;;;;;;;;5034592;28;20074;-66
2023/12/30 02:03:16;;;;;;;4.15;0.93;;;;;;;;;;5034657;28;20029;-66
2023/12/30 02:05:42;;;;;;;13.10;1.48;;;;;;;;;;5034896;28;20414;-65
2023/12/30 02:08:09;;;;;;;7.10;1.00;;;;;;;;;;5034742;28;20441;-66
2023/12/30 02:10:35;;;;;;;24.50;2.33;;;;;;;;;;5034054;28;20025;-65
2023/12/30 02:13:01;;;;;;;5.18;0.80;;;;;;;;;;5034540;28;20022;-66
2023/12/30 02:15:27;;;;;;;7.72;2.00;;;;;;;;;;5034567;28;20497;-66
2023/12/30 02:17:56;;;;;;;4.20;0.93;;;;;;;;;;5034469;28;20045;-67
2023/12/30 02:20:22;;;;;;;7.63;1.20;;;;;;;;;;5034321;28;20434;-67
2023/12/30 02:22:48;;;;;;;6.65;0.90;;;;;;;;;;5034509;28;20095;-66
2023/12/30 02:25:15;;;;;;;4.85;0.77;;;;;;;;;;5035179;28;20048;-67
2023/12/30 02:27:43;;;;;;;6.28;0.82;;;;;;;;;;5034435;28;20031;-66
2023/12/30 02:30:09;;;;;;;8.68;0.95;;;;;;;;;;5034110;28;20076;-67
2023/12/30 02:32:35;;;;;;;4.07;0.80;;;;;;;;;;5034433;28;20549;-68
2023/12/30 02:35:01;;;;;;;2.00;1.10;;;;;;;;;;5034176;28;20030;-67
2023/12/30 02:37:28;;;;;;;3.95;0.80;;;;;;;;;;5034145;28;20084;-66
2023/12/30 02:39:54;;;;;;;9.05;1.38;;;;;;;;;;5033698;28;20030;-66
2023/12/30 02:42:20;;;;;;;4.95;1.10;;;;;;;;;;5034245;28;20028;-67
2023/12/30 02:44:46;;;;;;;1.40;0.82;;;;;;;;;;5033613;28;20021;-66
2023/12/30 02:47:12;;;;;;;5.53;0.65;;;;;;;;;;5034000;28;20029;-67
2023/12/30 02:49:41;;;;;;;4.05;0.70;;;;;;;;;;5033701;28;20025;-67
2023/12/30 02:52:07;;;;;;;5.13;0.93;;;;;;;;;;5033673;28;20029;-67
2023/12/30 02:54:35;;;;;;;1.70;0.70;;;;;;;;;;5034108;28;20040;-67
2023/12/30 02:57:02;;;;;;;1.23;0.57;;;;;;;;;;5033970;28;20159;-67
2023/12/30 02:59:28;;;;;;;8.88;1.02;;;;;;;;;;5033651;28;20028;-67
2023/12/30 03:01:54;;;;;;;1.77;0.60;;;;;;;;;;5033559;28;20112;-67
2023/12/30 03:04:20;;;;;;;2.53;0.77;;;;;;;;;;5033735;28;20071;-66
2023/12/30 03:06:46;;;;;;;1.63;0.70;;;;;;;;;;5033641;28;20033;-67
2023/12/30 03:09:12;;;;;;;6.15;1.05;;;;;;;;;;5033781;28;20113;-67
2023/12/30 03:11:39;;;;;;;1.85;0.50;;;;;;;;;;5033473;28;20101;-65
2023/12/30 03:14:05;;;;;;;1.58;0.70;;;;;;;;;;5048870;28;20069;-65
2023/12/30 03:16:31;;;;;;;2.10;0.60;;;;;;;;;;5033433;28;20033;-65
2023/12/30 03:18:57;;;;;;;3.55;0.50;;;;;;;;;;5033428;28;20425;-64
2023/12/30 03:21:24;;;;;;;0.40;0.35;;;;;;;;;;5033031;28;20038;-65
2023/12/30 03:23:50;;;;;;;3.28;0.88;;;;;;;;;;5033233;28;20079;-64
2023/12/30 03:26:17;;;;;;;1.20;0.50;;;;;;;;;;5033162;28;20433;-65
2023/12/30 03:28:43;;;;;;;1.58;0.68;;;;;;;;;;5048469;28;20032;-66
2023/12/30 03:31:19;;;;;;;2.08;0.68;;;;;;;;;;5032978;28;20474;-67
2023/12/30 03:33:45;;;;;;;1.95;0.43;;;;;;;;;;5032917;28;20094;-66
2023/12/30 03:36:11;;;;;;;2.15;0.55;;;;;;;;;;5033120;28;20030;-66
2023/12/30 03:38:37;;;;;;;1.98;0.50;;;;;;;;;;5032827;28;20057;-66
2023/12/30 03:41:03;;;;;;;1.55;0.43;;;;;;;;;;5032828;28;20029;-66
2023/12/30 03:43:29;;;;;;;2.55;0.60;;;;;;;;;;5032910;28;20025;-66
2023/12/30 03:45:55;;;;;;;3.40;0.60;;;;;;;;;;5032924;28;20415;-66
2023/12/30 03:48:21;;;;;;;1.88;0.85;;;;;;;;;;5032707;28;20017;-66
2023/12/30 03:50:47;;;;;;;1.30;0.35;;;;;;;;;;5032615;28;20091;-67
2023/12/30 03:53:13;;;;;;;1.27;0.65;;;;;;;;;;5032697;28;20470;-66
2023/12/30 03:55:39;;;;;;;4.63;0.80;;;;;;;;;;5031867;28;20101;-66
2023/12/30 03:58:05;;;;;;;8.48;0.98;;;;;;;;;;5032684;28;20474;-66
2023/12/30 04:00:31;;;;;;;22.20;1.27;;;;;;;;;;5032511;28;20025;-66
2023/12/30 04:02:57;;;;;;;6.30;0.73;;;;;;;;;;5032245;28;20029;-66
2023/12/30 04:05:23;;;;;;;4.75;0.60;;;;;;;;;;5032533;28;20033;-66
2023/12/30 04:07:50;;;;;;;2.88;0.85;;;;;;;;;;5047821;28;20026;-66
2023/12/30 04:10:17;;;;;;;12.98;0.82;;;;;;;;;;5032685;28;20490;-67
2023/12/30 04:12:43;;;;;;;3.83;0.60;;;;;;;;;;5032689;28;20052;-67
2023/12/30 04:15:09;;;;;;;4.57;0.60;;;;;;;;;;5032682;28;20026;-67
2023/12/30 04:17:35;;;;;;;2.60;0.70;;;;;;;;;;5032384;28;20178;-66
2023/12/30 04:20:02;;;;;;;5.97;0.90;;;;;;;;;;5032111;28;20690;-66
2023/12/30 04:22:28;;;;;;;1.65;0.60;;;;;;;;;;5032250;28;20123;-66
2023/12/30 04:24:54;;;;;;;4.25;0.63;;;;;;;;;;5032230;28;20034;-66
2023/12/30 04:27:20;;;;;;;0.93;0.50;;;;;;;;;;5032310;28;20031;-66
2023/12/30 04:29:46;;;;;;;2.45;0.50;;;;;;;;;;5031801;28;20029;-67
2023/12/30 04:32:12;;;;;;;0.43;0.30;;;;;;;;;;5031831;28;20033;-67
2023/12/30 04:34:38;;;;;;;1.60;0.40;;;;;;;;;;5032175;28;20029;-66
2023/12/30 04:37:04;;;;;;;2.58;0.70;;;;;;;;;;5031819;28;20061;-66
2023/12/30 04:39:30;;;;;;;0.77;0.50;;;;;;;;;;5031730;28;20068;-67
2023/12/30 04:41:56;;;;;;;0.55;0.38;;;;;;;;;;5031762;28;20057;-67
2023/12/30 04:44:23;;;;;;;1.27;0.50;;;;;;;;;;5031879;28;20453;-66
2023/12/30 04:46:48;;;;;;;1.85;0.45;;;;;;;;;;5030471;28;20061;-66
2023/12/30 04:49:14;;;;;;;3.25;0.70;;;;;;;;;;5031773;28;20049;-67
2023/12/30 04:51:40;;;;;;;2.58;0.38;;;;;;;;;;5031651;28;20501;-67
2023/12/30 04:54:06;;;;;;;4.70;0.70;;;;;;;;;;5031719;28;20026;-64
2023/12/30 04:56:32;;;;;;;4.20;0.93;;;;;;;;;;5031667;28;20068;-65
2023/12/30 04:58:59;;;;;;;2.88;0.63;;;;;;;;;;5031627;28;20057;-65
2023/12/30 05:01:25;;;;;;;1.30;0.30;;;;;;;;;;5031316;28;20032;-66
2023/12/30 05:03:51;;;;;;;3.47;0.40;;;;;;;;;;5031624;28;20029;-66
2023/12/30 05:06:23;;;;;;;3.80;0.82;;;;;;;;;;5031472;28;20041;-67
2023/12/30 05:08:49;;;;;;;4.75;0.60;;;;;;;;;;5031611;28;20032;-68
2023/12/30 05:11:15;;;;;;;7.25;0.38;;;;;;;;;;5031424;28;20030;-67
2023/12/30 05:13:42;;;;;;;4.70;0.55;;;;;;;;;;5031325;28;20492;-66
2023/12/30 05:16:08;;;;;;;4.97;0.80;;;;;;;;;;5031522;28;20119;-67
2023/12/30 05:18:34;;;;;;;3.63;0.50;;;;;;;;;;5046868;28;20078;-66
2023/12/30 05:21:00;;;;;;;1.23;0.52;;;;;;;;;;5031253;28;20449;-66
2023/12/30 05:23:26;;;;;;;2.00;0.50;;;;;;;;;;5031401;28;20017;-65
2023/12/30 05:25:53;;;;;;;1.15;0.57;;;;;;;;;;5046719;28;20022;-66
2023/12/30 05:28:19;;;;;;;0.73;0.30;;;;;;;;;;5031292;28;20030;-65
2023/12/30 05:30:45;;;;;;;2.85;0.40;;;;;;;;;;5031384;28;20033;-66
2023/12/30 05:33:11;;;;;;;2.72;0.30;;;;;;;;;;5031278;28;20553;-66
2023/12/30 05:35:37;;;;;;;4.82;0.50;;;;;;;;;;5031235;28;20029;-66
2023/12/30 05:38:03;;;;;;;2.92;0.40;;;;;;;;;;5031323;28;20021;-66
2023/12/30 05:40:30;;;;;;;2.58;0.30;;;;;;;;;;5030340;28;20033;-68
2023/12/30 05:42:56;;;;;;;2.42;0.40;;;;;;;;;;5029936;28;20095;-68
2023/12/30 05:45:22;;;;;;;2.80;0.35;;;;;;;;;;5029748;28;20109;-68
2023/12/30 05:47:48;;;;;;;1.92;0.40;;;;;;;;;;5029757;28;20112;-68
2023/12/30 05:50:14;;;;;;;0.50;0.30;;;;;;;;;;5029547;28;20026;-68
2023/12/30 05:52:41;;;;;;;3.45;0.68;;;;;;;;;;5029588;28;20072;-68
2023/12/30 05:55:07;;;;;;;1.52;0.45;;;;;;;;;;5029730;28;20034;-68
2023/12/30 05:57:33;;;;;;;2.75;0.30;;;;;;;;;;5029651;28;20033;-65
2023/12/30 05:59:59;;;;;;;5.88;0.30;;;;;;;;;;5029501;28;20029;-66
2023/12/30 06:02:25;;;;;;;10.82;0.93;;;;;;;;;;5029572;28;20509;-66
2023/12/30 06:04:51;;;;;;;9.13;0.60;;;;;;;;;;5029762;28;20503;-66
2023/12/30 06:07:17;;;;;;;1.98;0.70;;;;;;;;;;5029738;28;20030;-66
2023/12/30 06:09:44;;;;;;;2.55;0.50;;;;;;;;;;5029673;28;20033;-64
2023/12/30 06:12:10;;;;;;;8.60;0.60;;;;;;;;;;5029913;28;20115;-64
2023/12/30 06:14:36;;;;;;;4.63;0.43;;;;;;;;;;5030356;28;20041;-64
2023/12/30 06:17:02;;;;;;;4.32;0.30;;;;;;;;;;5032821;28;20439;-64
2023/12/30 06:19:28;;;;;;;2.47;0.45;;;;;;;;;;5036036;28;20105;-65
2023/12/30 06:21:54;;;;;;;4.97;0.65;;;;;;;;;;5038271;28;20462;-65
2023/12/30 06:24:22;;;;;;;0.40;0.38;;;;;;;;;;5039306;28;20131;-67
2023/12/30 06:26:49;;;;;;;4.60;0.60;;;;;;;;;;5036427;28;20021;-67
2023/12/30 06:29:15;;;;;;;9.20;1.33;;;;;;;;;;5034489;28;20108;-66
2023/12/30 06:31:41;;;;;;;4.00;0.65;;;;;;;;;;5032947;28;20057;-68
2023/12/30 06:34:07;;;;;;;3.85;0.65;;;;;;;;;;5032923;28;20112;-66
2023/12/30 06:36:33;;;;;;;7.18;0.70;;;;;;;;;;5032718;28;20021;-66
2023/12/30 06:38:59;;;;;;;3.72;0.40;;;;;;;;;;5032913;28;20044;-65
2023/12/30 06:41:25;;;;;;;4.40;0.98;;;;;;;;;;5032313;28;20406;-66
2023/12/30 06:43:51;;;;;;;7.60;1.00;;;;;;;;;;5032343;28;20029;-68
2023/12/30 06:46:21;;;;;;;12.30;1.00;;;;;;;;;;5032635;28;20083;-69
2023/12/30 06:48:47;;;;;;;6.22;0.80;;;;;;;;;;5047475;28;20457;-69
2023/12/30 06:51:13;;;;;;;4.18;0.95;;;;;;;;;;5047364;28;20099;-67
2023/12/30 06:53:39;;;;;;;12.82;0.85;;;;;;;;;;5032223;28;20025;-67
2023/12/30 06:56:09;;;;;;;7.15;0.90;;;;;;;;;;5032278;28;20033;-68
2023/12/30 06:58:35;;;;;;;15.07;1.65;;;;;;;;;;5032099;28;20482;-65
2023/12/30 07:01:01;;;;;;;12.57;1.33;;;;;;;;;;5031911;28;20036;-67
2023/12/30 07:03:27;;;;;;;21.80;1.80;;;;;;;;;;5072031;22;20049;-66
2023/12/30 07:05:53;;;;;;;7.75;1.13;;;;;;;;;;5019422;28;20022;-66
2023/12/30 07:08:19;;;;;;;12.00;1.00;;;;;;;;;;5026716;28;20036;-66
2023/12/30 07:10:45;;;;;;;12.25;1.60;;;;;;;;;;5026340;28;20482;-66
2023/12/30 07:13:11;;;;;;;7.97;1.38;;;;;;;;;;5026616;28;20028;-68
2023/12/30 07:15:37;;;;;;;8.80;0.70;;;;;;;;;;5033547;28;20033;-67
2023/12/30 07:18:03;;;;;;;6.28;1.08;;;;;;;;;;5033422;28;20032;-67
2023/12/30 07:20:29;;;;;;;6.78;0.70;;;;;;;;;;4999965;28;20139;-67
2023/12/30 07:22:56;;;;;;;4.13;0.85;;;;;;;;;;5015618;28;20447;-67
2023/12/30 07:25:22;;;;;;;5.13;0.68;;;;;;;;;;5012776;28;20061;-67
2023/12/30 07:27:49;;;;;;;2.22;0.50;;;;;;;;;;5011613;28;20033;-67
2023/12/30 07:30:15;;;;;;;0.98;0.38;;;;;;;;;;5017188;28;20022;-69
2023/12/30 07:32:41;;;;;;;6.65;0.80;;;;;;;;;;5011384;28;20037;-68
2023/12/30 07:35:07;;;;;;;3.35;0.50;;;;;;;;;;5012763;28;20033;-71
2023/12/30 07:37:34;;;;;;;4.85;0.45;;;;;;;;;;5019279;28;20044;-69
2023/12/30 07:40:01;;;;;;;2.03;0.47;;;;;;;;;;4996543;28;20038;-69
2023/12/30 07:42:27;;;;;;;1.45;0.35;;;;;;;;;;5013965;28;20022;-69
2023/12/30 07:44:53;;;;;;;0.98;0.40;;;;;;;;;;5015457;28;20018;-69
2023/12/30 07:47:19;;;;;;;1.08;0.35;;;;;;;;;;5013029;28;20026;-69
2023/12/30 07:49:46;;;;;;;23.30;1.75;;;;;;;;;;5012976;28;20033;-72
2023/12/30 07:52:12;;;;;;;23.08;2.33;;;;;;;;;;5029401;28;20083;-70
2023/12/30 07:54:38;;;;;;;25.73;2.17;;;;;;;;;;5031469;28;20223;-70
2023/12/30 07:57:04;;;;;;;16.77;2.30;;;;;;;;;;5032095;28;20504;-69
2023/12/30 07:59:30;;;;;;;22.08;2.28;;;;;;;;;;5015977;28;20026;-69
2023/12/30 08:01:56;;;;;;;11.32;1.35;;;;;;;;;;5011734;28;20475;-70
2023/12/30 08:04:22;;;;;;;10.20;1.48;;;;;;;;;;5013853;28;20033;-69
2023/12/30 08:06:49;;;;;;;13.77;2.30;;;;;;;;;;5017963;28;20018;-69
2023/12/30 08:09:15;;;;;;;33.65;3.33;;;;;;;;;;4992862;28;20022;-68
2023/12/30 08:11:42;;;;;;;8.48;1.35;;;;;;;;;;5007866;28;20538;-70
2023/12/30 08:14:08;;;;;;;4.25;0.80;;;;;;;;;;5011097;28;20036;-72
2023/12/30 08:16:37;;;;;;;9.02;1.17;;;;;;;;;;5026907;28;20109;-71
2023/12/30 08:19:03;;;;;;;13.88;2.38;;;;;;;;;;5012208;28;20048;-70
2023/12/30 08:21:33;;;;;;;16.05;1.98;;;;;;;;;;5012036;28;20014;-70
2023/12/30 08:24:00;;;;;;;7.72;1.13;;;;;;;;;;5010544;28;20030;-70
2023/12/30 08:26:27;;;;;;;17.35;1.30;;;;;;;;;;5011571;28;20116;-71
2023/12/30 08:28:54;;;;;;;10.73;1.27;;;;;;;;;;4993414;28;20400;-69
2023/12/30 08:31:21;;;;;;;12.95;1.90;;;;;;;;;;5012028;28;20029;-68
2023/12/30 08:33:47;;;;;;;15.57;1.95;;;;;;;;;;5016355;28;20026;-69
2023/12/30 08:36:13;;;;;;;11.00;1.58;;;;;;;;;;5032280;28;20026;-69
2023/12/30 08:38:40;;;;;;;14.90;2.58;;;;;;;;;;5032038;28;20514;-67
2023/12/30 08:41:10;;;;;;;11.02;1.67;;;;;;;;;;5020215;28;20023;-69
2023/12/30 08:43:36;;;;;;;7.05;1.45;;;;;;;;;;5019107;28;20014;-68
2023/12/30 08:46:02;;;;;;;15.27;2.83;;;;;;;;;;5007296;28;20042;-70
2023/12/30 08:48:28;;;;;;;19.70;2.17;;;;;;;;;;4994927;28;20502;-69
2023/12/30 08:50:54;;;;;;;21.73;2.53;;;;;;;;;;5009430;28;20025;-71
2023/12/30 08:53:24;;;;;;;14.93;1.90;;;;;;;;;;5012331;28;20021;-69
2023/12/30 08:55:51;;;;;;;15.23;2.13;;;;;;;;;;5024622;28;20032;-70
2023/12/30 08:58:17;;;;;;;20.52;3.38;;;;;;;;;;5021101;28;20033;-70
2023/12/30 09:00:43;;;;;;;14.15;2.28;;;;;;;;;;5011891;28;20026;-72
2023/12/30 09:03:09;;;;;;;16.35;2.42;;;;;;;;;;5012363;28;20030;-70
2023/12/30 09:05:35;;;;;;;17.30;2.75;;;;;;;;;;5012498;28;20022;-69
2023/12/30 09:08:03;;;;;;;14.68;1.75;;;;;;;;;;5012063;28;20032;-69
2023/12/30 09:10:31;;;;;;;10.25;1.20;;;;;;;;;;5011835;28;20022;-71
2023/12/30 09:12:57;;;;;;;25.20;2.08;;;;;;;;;;5011904;28;20022;-69
2023/12/30 09:15:23;;;;;;;15.52;2.08;;;;;;;;;;5011660;28;20026;-67
2023/12/30 09:17:49;;;;;;;34.30;4.40;;;;;;;;;;5011831;28;20030;-67
2023/12/30 09:20:15;;;;;;;23.85;3.03;;;;;;;;;;5011312;28;20114;-69
2023/12/30 09:22:41;;;;;;;23.55;3.22;;;;;;;;;;5005653;28;20034;-69
2023/12/30 09:25:07;;;;;;;1.33;0.80;;;;;;;;;;5011284;28;20072;-67
2023/12/30 09:27:33;;;;;;;3.13;1.00;;;;;;;;;;5009441;28;20034;-70
2023/12/30 09:29:59;;;;;;;10.23;1.20;;;;;;;;;;5016001;28;20025;-70
2023/12/30 09:32:25;;;;;;;1.42;0.50;;;;;;;;;;4993084;28;20030;-71
2023/12/30 09:34:53;;;;;;;3.15;0.77;;;;;;;;;;4999384;28;20087;-70
2023/12/30 09:37:19;;;;;;;6.55;1.30;;;;;;;;;;5015247;28;20024;-71
2023/12/30 09:39:46;;;;;;;9.02;1.30;;;;;;;;;;5009478;28;20073;-71
2023/12/30 09:42:12;;;;;;;8.73;1.50;;;;;;;;;;4990609;28;20022;-71
2023/12/30 09:44:39;;;;;;;6.28;1.35;;;;;;;;;;4990994;28;20650;-71
2023/12/30 09:47:07;;;;;;;5.10;1.08;;;;;;;;;;4990502;28;20098;-71
2023/12/30 09:49:35;;;;;;;4.43;1.02;;;;;;;;;;4988860;28;20027;-70
2023/12/30 09:52:06;;;;;;;6.20;1.40;;;;;;;;;;4990907;28;20026;-70
2023/12/30 09:54:33;;;;;;;6.03;1.42;;;;;;;;;;4992797;28;20023;-71
2023/12/30 09:57:00;;;;;;;3.55;1.10;;;;;;;;;;4994584;28;20113;-70
2023/12/30 09:59:26;;;;;;;3.35;1.02;;;;;;;;;;4994101;28;20026;-71
2023/12/30 10:01:54;;;;;;;3.55;0.80;;;;;;;;;;4994359;28;20046;-70
2023/12/30 10:04:20;;;;;;;3.97;1.45;;;;;;;;;;4994208;28;20475;-71
2023/12/30 10:06:47;;;;;;;9.90;1.27;;;;;;;;;;4993897;28;20113;-70
2023/12/30 10:09:13;;;;;;;6.97;1.73;;;;;;;;;;4995087;28;20038;-70
2023/12/30 10:11:39;;;;;;;5.07;1.10;;;;;;;;;;4994882;28;20396;-69
2023/12/30 10:14:06;;;;;;;2.95;0.88;;;;;;;;;;4995028;28;20052;-71
2023/12/30 10:16:32;;;;;;;3.25;0.80;;;;;;;;;;4995149;28;20026;-71
2023/12/30 10:18:58;;;;;;;2.88;0.70;;;;;;;;;;4995009;28;20038;-70
2023/12/30 10:21:26;;;;;;;6.40;0.93;;;;;;;;;;4994778;28;20019;-71
2023/12/30 10:23:53;;;;;;;2.42;0.82;;;;;;;;;;4993747;28;20444;-70
2023/12/30 10:26:21;;;;;;;1.83;0.60;;;;;;;;;;4994691;28;20015;-70
2023/12/30 10:28:47;;;;;;;2.53;0.90;;;;;;;;;;4994746;28;20029;-71
2023/12/30 10:31:16;;;;;;;5.75;0.93;;;;;;;;;;4994628;28;20505;-70
2023/12/30 10:33:42;;;;;;;3.20;0.80;;;;;;;;;;4994836;28;20046;-70
2023/12/30 10:36:08;;;;;;;4.07;0.82;;;;;;;;;;4994795;28;20038;-70
2023/12/30 10:38:35;;;;;;;2.47;0.43;;;;;;;;;;4996010;28;20037;-71
2023/12/30 10:41:01;;;;;;;1.40;0.47;;;;;;;;;;4994744;28;20088;-71
2023/12/30 10:43:27;;;;;;;1.88;0.77;;;;;;;;;;4994426;28;20026;-71
2023/12/30 10:46:01;;;;;;;2.60;0.40;;;;;;;;;;4994528;28;20545;-70
2023/12/30 10:48:31;;;;;;;3.38;1.00;;;;;;;;;;4994623;28;20514;-70
2023/12/30 10:51:01;;;;;;;1.35;0.50;;;;;;;;;;4994468;28;20053;-70
2023/12/30 10:53:29;;;;;;;0.70;0.50;;;;;;;;;;4993082;28;20029;-70
2023/12/30 10:55:56;;;;;;;1.63;0.45;;;;;;;;;;4994441;28;20484;-70
2023/12/30 10:58:22;;;;;;;4.55;0.90;;;;;;;;;;4994213;28;20073;-70
2023/12/30 11:01:07;;;;;;;1.90;0.68;;;;;;;;;;4993973;28;20062;-70
2023/12/30 11:03:34;;;;;;;3.30;0.70;;;;;;;;;;4994130;28;20037;-70
2023/12/30 11:06:18;;;;;;;0.65;0.30;;;;;;;;;;4993782;28;20646;-70
2023/12/30 11:08:45;;;;;;;0.50;0.25;;;;;;;;;;4993928;28;20026;-70
2023/12/30 11:11:17;;;;;;;2.33;0.77;;;;;;;;;;4993704;28;20391;-70
2023/12/30 11:13:43;;;;;;;0.98;0.40;;;;;;;;;;4994076;28;20443;-70
2023/12/30 11:16:13;;;;;;;3.67;0.80;;;;;;;;;;4992673;28;20041;-70
2023/12/30 11:18:59;;;;;;;2.75;0.65;;;;;;;;;;4992641;28;20019;-70
2023/12/30 11:21:37;;;;;;;2.10;0.40;;;;;;;;;;4993713;28;20069;-70
2023/12/30 11:24:08;;;;;;;0.73;0.43;;;;;;;;;;4993895;28;20102;-70
2023/12/30 11:26:39;;;;;;;1.90;0.55;;;;;;;;;;4993919;28;20022;-70
2023/12/30 11:29:05;;;;;;;1.55;0.45;;;;;;;;;;4993816;28;20041;-70
2023/12/30 11:31:32;;;;;;;0.73;0.55;;;;;;;;;;4993491;28;20029;-71
2023/12/30 11:34:01;;;;;;;1.33;0.52;;;;;;;;;;4993351;28;20449;-70
2023/12/30 11:36:28;;;;;;;2.35;0.30;;;;;;;;;;4993660;28;20625;-70
2023/12/30 11:38:58;;;;;;;0.80;0.38;;;;;;;;;;4993486;28;20038;-70
2023/12/30 11:41:24;;;;;;;1.70;0.63;;;;;;;;;;4993420;28;20381;-70
2023/12/30 11:43:50;;;;;;;1.38;0.35;;;;;;;;;;4993347;28;20030;-70
2023/12/30 11:46:17;;;;;;;2.13;0.70;;;;;;;;;;4993400;28;20101;-70
2023/12/30 11:48:44;;;;;;;0.85;0.35;;;;;;;;;;4992159;28;20026;-71
2023/12/30 11:51:10;;;;;;;0.77;0.60;;;;;;;;;;4993057;28;20164;-71
2023/12/30 11:53:36;;;;;;;1.40;0.20;;;;;;;;;;4991071;28;20029;-71
2023/12/30 11:56:02;;;;;;;0.90;0.65;;;;;;;;;;4991955;28;20030;-70
2023/12/30 11:58:29;;;;;;;0.80;0.22;;;;;;;;;;4991648;28;20340;-71
2023/12/30 12:00:55;;;;;;;0.85;0.38;;;;;;;;;;4991298;28;20102;-70
2023/12/30 12:03:21;;;;;;;2.22;1.05;;;;;;;;;;4991424;28;20023;-70
2023/12/30 12:05:47;;;;;;;2.03;0.40;;;;;;;;;;4991500;28;20539;-71
2023/12/30 12:08:13;;;;;;;1.23;0.47;;;;;;;;;;4991698;28;20033;-71
2023/12/30 12:10:39;;;;;;;0.82;0.28;;;;;;;;;;4990016;28;20070;-70
2023/12/30 12:13:09;;;;;;;1.50;0.60;;;;;;;;;;4991343;28;20417;-70
2023/12/30 12:15:35;;;;;;;2.28;0.40;;;;;;;;;;4991240;28;20061;-70
2023/12/30 12:18:01;;;;;;;1.20;0.50;;;;;;;;;;4990617;28;20023;-71
2023/12/30 12:20:28;;;;;;;1.13;0.40;;;;;;;;;;4991445;28;20027;-70
2023/12/30 12:22:54;;;;;;;0.55;0.20;;;;;;;;;;4991530;28;20027;-71
2023/12/30 12:25:21;;;;;;;0.60;0.40;;;;;;;;;;4991366;28;20032;-71
2023/12/30 12:27:48;;;;;;;1.15;0.40;;;;;;;;;;4991376;28;20030;-70
2023/12/30 12:30:15;;;;;;;0.50;0.20;;;;;;;;;;4991007;28;20037;-70
2023/12/30 12:32:41;;;;;;;1.38;0.32;;;;;;;;;;4990097;28;20421;-71
2023/12/30 12:35:08;;;;;;;1.35;0.55;;;;;;;;;;4991227;28;20035;-71
2023/12/30 12:37:34;;;;;;;1.67;0.28;;;;;;;;;;4989762;28;20496;-70
2023/12/30 12:40:00;;;;;;;1.75;0.30;;;;;;;;;;4990896;28;20030;-71
2023/12/30 12:42:26;;;;;;;0.32;0.22;;;;;;;;;;4991198;28;20022;-70
2023/12/30 12:44:52;;;;;;;0.70;0.30;;;;;;;;;;4990997;28;20116;-70
2023/12/30 12:47:18;;;;;;;1.00;0.63;;;;;;;;;;4991166;28;20105;-71
2023/12/30 12:49:44;;;;;;;0.47;0.20;;;;;;;;;;4990857;28;20039;-70
2023/12/30 12:52:10;;;;;;;0.60;0.40;;;;;;;;;;4993093;28;20056;-71
2023/12/30 12:54:36;;;;;;;1.60;0.40;;;;;;;;;;5010490;28;20402;-70
2023/12/30 12:57:02;;;;;;;0.38;0.20;;;;;;;;;;5010464;28;20025;-71
2023/12/30 12:59:28;;;;;;;0.82;0.20;;;;;;;;;;5009904;28;20025;-71
2023/12/30 13:01:54;;;;;;;0.60;0.17;;;;;;;;;;5010352;28;20393;-71
2023/12/30 13:04:21;;;;;;;1.00;0.20;;;;;;;;;;5009638;28;20073;-71
2023/12/30 13:06:47;;;;;;;0.38;0.08;;;;;;;;;;5008928;28;20037;-70
2023/12/30 13:11:59;;;;;;;0.85;0.40;;;;;;;;;;5009079;28;20121;-71
2023/12/30 13:14:27;;;;;;;1.13;0.32;;;;;;;;;;5010450;28;20032;-71
2023/12/30 13:16:57;;;;;;;0.50;0.20;;;;;;;;;;5010521;28;20030;-71
2023/12/30 13:19:23;;;;;;;0.47;0.20;;;;;;;;;;5010057;28;20069;-70
2023/12/30 13:21:49;;;;;;;1.60;0.55;;;;;;;;;;5010522;28;20049;-71
2023/12/30 13:24:15;;;;;;;1.13;0.40;;;;;;;;;;5010281;28;20037;-71
2023/12/30 13:26:43;;;;;;;0.57;0.20;;;;;;;;;;5010208;28;20511;-71
2023/12/30 13:29:10;;;;;;;1.20;0.22;;;;;;;;;;5013446;28;20041;-70
2023/12/30 13:31:36;;;;;;;0.38;0.13;;;;;;;;;;5014131;28;20022;-71
2023/12/30 13:34:05;;;;;;;0.35;0.10;;;;;;;;;;5014245;28;20513;-71
2023/12/30 13:36:31;;;;;;;0.03;0.03;;;;;;;;;;5014147;28;20458;-71
2023/12/30 13:39:05;;;;;;;0.38;0.20;;;;;;;;;;5012822;28;20135;-69
2023/12/30 13:41:31;;;;;;;0.80;0.20;;;;;;;;;;5012608;28;20026;-70
2023/12/30 13:43:58;;;;;;;0.38;0.20;;;;;;;;;;5012483;28;20026;-71
2023/12/30 13:51:38;;;;;;;0.80;0.28;;;;;;;;;;5013314;28;20077;-71
2023/12/30 13:54:04;;;;;;;0.45;0.13;;;;;;;;;;5013261;28;20072;-71
2023/12/30 13:56:36;;;;;;;0.60;0.20;;;;;;;;;;5013354;28;20026;-71
2023/12/30 13:59:09;;;;;;;0.57;0.40;;;;;;;;;;5013279;28;20089;-71
2023/12/30 14:01:36;;;;;;;2.63;0.60;;;;;;;;;;5013036;28;20034;-71
2023/12/30 14:04:04;;;;;;;0.25;0.20;;;;;;;;;;5013046;28;20045;-71
2023/12/30 14:06:39;;;;;;;0.30;0.10;;;;;;;;;;5011887;28;20048;-71
2023/12/30 14:09:35;;;;;;;0.60;0.15;;;;;;;;;;5012036;28;20026;-71
2023/12/30 14:12:05;;;;;;;0.47;0.17;;;;;;;;;;5013254;28;20029;-71
2023/12/30 14:14:41;;;;;;;1.10;0.20;;;;;;;;;;5013119;28;20030;-70
2023/12/30 14:17:07;;;;;;;0.20;0.20;;;;;;;;;;5013543;28;20032;-71
2023/12/30 14:19:33;;;;;;;2.95;0.25;;;;;;;;;;5012800;28;20029;-70
2023/12/30 14:21:59;;;;;;;0.50;0.28;;;;;;;;;;5013167;28;20022;-71
2023/12/30 14:24:25;;;;;;;0.50;0.13;;;;;;;;;;5012928;28;20045;-69
2023/12/30 14:26:51;;;;;;;1.00;0.38;;;;;;;;;;5012757;28;20371;-71
2023/12/30 14:29:18;;;;;;;0.88;0.30;;;;;;;;;;5012632;28;20455;-71
2023/12/30 14:31:44;;;;;;;0.95;0.30;;;;;;;;;;5012784;28;20030;-71
2023/12/30 14:34:10;;;;;;;0.25;0.20;;;;;;;;;;5012552;28;20498;-69
2023/12/30 14:36:36;;;;;;;1.23;0.30;;;;;;;;;;5012851;28;20030;-71
2023/12/30 14:39:03;;;;;;;0.25;0.20;;;;;;;;;;5012144;28;20088;-71
2023/12/30 14:41:29;;;;;;;0.20;0.10;;;;;;;;;;5012176;28;20103;-71
2023/12/30 14:43:55;;;;;;;0.85;0.10;;;;;;;;;;5012828;28;20508;-71
2023/12/30 14:46:21;;;;;;;1.15;0.40;;;;;;;;;;5012513;28;20033;-69